sensor_id;sensor_type;location;lat;lon;timestamp;P1;durP1;ratioP1;P2;durP2;ratioP2
19059;SDS011;9663;48.996;8.334;2023-03-12T00:00:49;4.97;;;2.10;;
19059;SDS011;9663;48.996;8.334;2023-03-12T00:03:15;5.60;;;2.20;;
19059;SDS011;9663;48.996;8.334;2023-03-12T00:05:42;7.38;;;2.75;;
19059;SDS011;9663;48.996;8.334;2023-03-12T00:08:09;4.82;;;1.80;;
19059;SDS011;9663;48.996;8.334;2023-03-12T00:10:37;7.13;;;2.40;;
19059;SDS011;9663;48.996;8.334;2023-03-12T00:13:04;6.57;;;2.50;;
19059;SDS011;9663;48.996;8.334;2023-03-12T00:15:34;6.30;;;2.85;;
19059;SDS011;9663;48.996;8.334;2023-03-12T00:18:03;7.90;;;3.00;;
19059;SDS011;9663;48.996;8.334;2023-03-12T00:20:30;6.68;;;2.65;;
19059;SDS011;9663;48.996;8.334;2023-03-12T00:22:56;5.60;;;2.75;;
19059;SDS011;9663;48.996;8.334;2023-03-12T00:25:21;7.32;;;3.20;;
19059;SDS011;9663;48.996;8.334;2023-03-12T00:27:47;5.43;;;2.67;;
19059;SDS011;9663;48.996;8.334;2023-03-12T00:30:13;6.13;;;2.47;;
19059;SDS011;9663;48.996;8.334;2023-03-12T00:32:39;5.38;;;2.55;;
19059;SDS011;9663;48.996;8.334;2023-03-12T00:35:05;7.28;;;3.08;;
19059;SDS011;9663;48.996;8.334;2023-03-12T00:37:31;6.95;;;2.70;;
19059;SDS011;9663;48.996;8.334;2023-03-12T00:39:58;6.68;;;3.17;;
19059;SDS011;9663;48.996;8.334;2023-03-12T00:42:25;6.40;;;2.80;;
19059;SDS011;9663;48.996;8.334;2023-03-12T00:44:52;6.45;;;2.95;;
19059;SDS011;9663;48.996;8.334;2023-03-12T00:47:18;6.85;;;3.10;;
19059;SDS011;9663;48.996;8.334;2023-03-12T00:49:44;5.53;;;2.83;;
19059;SDS011;9663;48.996;8.334;2023-03-12T00:52:09;6.40;;;2.97;;
19059;SDS011;9663;48.996;8.334;2023-03-12T00:54:35;6.50;;;3.00;;
19059;SDS011;9663;48.996;8.334;2023-03-12T00:57:01;5.80;;;2.65;;
19059;SDS011;9663;48.996;8.334;2023-03-12T00:59:26;5.38;;;2.38;;
19059;SDS011;9663;48.996;8.334;2023-03-12T01:01:52;5.35;;;2.40;;
19059;SDS011;9663;48.996;8.334;2023-03-12T01:04:18;5.20;;;2.22;;
19059;SDS011;9663;48.996;8.334;2023-03-12T01:06:44;4.78;;;1.95;;
19059;SDS011;9663;48.996;8.334;2023-03-12T01:09:09;5.00;;;2.20;;
19059;SDS011;9663;48.996;8.334;2023-03-12T01:11:36;5.25;;;1.88;;
19059;SDS011;9663;48.996;8.334;2023-03-12T01:14:03;4.50;;;1.67;;
19059;SDS011;9663;48.996;8.334;2023-03-12T01:16:32;4.35;;;1.63;;
19059;SDS011;9663;48.996;8.334;2023-03-12T01:18:59;4.72;;;1.90;;
19059;SDS011;9663;48.996;8.334;2023-03-12T01:21:26;4.57;;;1.70;;
19059;SDS011;9663;48.996;8.334;2023-03-12T01:23:53;4.97;;;1.95;;
19059;SDS011;9663;48.996;8.334;2023-03-12T01:26:20;4.53;;;1.77;;
19059;SDS011;9663;48.996;8.334;2023-03-12T01:28:47;4.93;;;1.80;;
19059;SDS011;9663;48.996;8.334;2023-03-12T01:31:14;5.40;;;1.65;;
19059;SDS011;9663;48.996;8.334;2023-03-12T01:33:43;4.13;;;1.90;;
19059;SDS011;9663;48.996;8.334;2023-03-12T01:36:23;3.67;;;1.52;;
19059;SDS011;9663;48.996;8.334;2023-03-12T01:38:53;4.07;;;1.63;;
19059;SDS011;9663;48.996;8.334;2023-03-12T01:41:23;4.50;;;1.52;;
19059;SDS011;9663;48.996;8.334;2023-03-12T01:43:51;5.18;;;1.70;;
19059;SDS011;9663;48.996;8.334;2023-03-12T01:48:54;4.13;;;1.58;;
19059;SDS011;9663;48.996;8.334;2023-03-12T01:51:39;4.28;;;1.75;;
19059;SDS011;9663;48.996;8.334;2023-03-12T01:54:22;3.47;;;1.67;;
19059;SDS011;9663;48.996;8.334;2023-03-12T01:57:07;3.58;;;1.60;;
19059;SDS011;9663;48.996;8.334;2023-03-12T01:59:46;4.25;;;1.50;;
19059;SDS011;9663;48.996;8.334;2023-03-12T02:02:20;3.40;;;1.42;;
19059;SDS011;9663;48.996;8.334;2023-03-12T02:04:51;4.57;;;1.67;;
19059;SDS011;9663;48.996;8.334;2023-03-12T02:07:27;4.35;;;1.65;;
19059;SDS011;9663;48.996;8.334;2023-03-12T02:09:52;3.42;;;1.17;;
19059;SDS011;9663;48.996;8.334;2023-03-12T02:12:18;4.88;;;2.05;;
19059;SDS011;9663;48.996;8.334;2023-03-12T02:14:44;5.60;;;1.75;;
19059;SDS011;9663;48.996;8.334;2023-03-12T02:17:10;3.72;;;1.55;;
19059;SDS011;9663;48.996;8.334;2023-03-12T02:22:35;4.65;;;1.70;;
19059;SDS011;9663;48.996;8.334;2023-03-12T02:27:54;4.32;;;1.80;;
19059;SDS011;9663;48.996;8.334;2023-03-12T02:30:26;3.78;;;1.77;;
19059;SDS011;9663;48.996;8.334;2023-03-12T02:32:54;3.35;;;1.30;;
19059;SDS011;9663;48.996;8.334;2023-03-12T02:35:25;3.95;;;1.67;;
19059;SDS011;9663;48.996;8.334;2023-03-12T02:37:53;4.45;;;1.58;;
19059;SDS011;9663;48.996;8.334;2023-03-12T02:43:05;3.67;;;1.50;;
19059;SDS011;9663;48.996;8.334;2023-03-12T02:45:33;4.35;;;1.77;;
19059;SDS011;9663;48.996;8.334;2023-03-12T02:48:01;4.22;;;1.58;;
19059;SDS011;9663;48.996;8.334;2023-03-12T02:50:27;4.13;;;1.70;;
19059;SDS011;9663;48.996;8.334;2023-03-12T02:52:53;3.92;;;1.58;;
19059;SDS011;9663;48.996;8.334;2023-03-12T02:55:19;4.82;;;1.70;;
19059;SDS011;9663;48.996;8.334;2023-03-12T02:57:45;3.67;;;1.40;;
19059;SDS011;9663;48.996;8.334;2023-03-12T03:00:11;5.07;;;1.42;;
19059;SDS011;9663;48.996;8.334;2023-03-12T03:02:39;3.85;;;1.60;;
19059;SDS011;9663;48.996;8.334;2023-03-12T03:05:06;4.40;;;1.83;;
19059;SDS011;9663;48.996;8.334;2023-03-12T03:07:34;4.10;;;1.83;;
19059;SDS011;9663;48.996;8.334;2023-03-12T03:10:00;4.78;;;1.80;;
19059;SDS011;9663;48.996;8.334;2023-03-12T03:12:31;5.60;;;1.70;;
19059;SDS011;9663;48.996;8.334;2023-03-12T03:14:58;3.40;;;1.50;;
19059;SDS011;9663;48.996;8.334;2023-03-12T03:17:24;3.70;;;1.50;;
19059;SDS011;9663;48.996;8.334;2023-03-12T03:19:51;3.95;;;1.58;;
19059;SDS011;9663;48.996;8.334;2023-03-12T03:22:17;3.55;;;1.40;;
19059;SDS011;9663;48.996;8.334;2023-03-12T03:24:44;5.18;;;1.70;;
19059;SDS011;9663;48.996;8.334;2023-03-12T03:27:10;3.50;;;1.40;;
19059;SDS011;9663;48.996;8.334;2023-03-12T03:29:37;3.47;;;1.50;;
19059;SDS011;9663;48.996;8.334;2023-03-12T03:32:03;4.97;;;1.60;;
19059;SDS011;9663;48.996;8.334;2023-03-12T03:34:29;4.72;;;1.45;;
19059;SDS011;9663;48.996;8.334;2023-03-12T03:36:55;3.65;;;1.20;;
19059;SDS011;9663;48.996;8.334;2023-03-12T03:39:21;4.53;;;1.63;;
19059;SDS011;9663;48.996;8.334;2023-03-12T03:41:47;3.50;;;1.40;;
19059;SDS011;9663;48.996;8.334;2023-03-12T03:44:13;4.22;;;1.40;;
19059;SDS011;9663;48.996;8.334;2023-03-12T03:46:38;5.25;;;1.52;;
19059;SDS011;9663;48.996;8.334;2023-03-12T03:49:04;3.97;;;1.30;;
19059;SDS011;9663;48.996;8.334;2023-03-12T03:51:30;3.85;;;1.45;;
19059;SDS011;9663;48.996;8.334;2023-03-12T03:53:57;3.33;;;1.30;;
19059;SDS011;9663;48.996;8.334;2023-03-12T03:56:24;3.75;;;1.27;;
19059;SDS011;9663;48.996;8.334;2023-03-12T03:58:51;4.15;;;1.30;;
19059;SDS011;9663;48.996;8.334;2023-03-12T04:01:16;4.22;;;1.38;;
19059;SDS011;9663;48.996;8.334;2023-03-12T04:03:43;4.07;;;1.75;;
19059;SDS011;9663;48.996;8.334;2023-03-12T04:06:08;4.03;;;1.40;;
19059;SDS011;9663;48.996;8.334;2023-03-12T04:08:36;4.53;;;1.35;;
19059;SDS011;9663;48.996;8.334;2023-03-12T04:11:06;3.08;;;1.20;;
19059;SDS011;9663;48.996;8.334;2023-03-12T04:13:43;3.40;;;1.30;;
19059;SDS011;9663;48.996;8.334;2023-03-12T04:16:10;3.22;;;1.20;;
19059;SDS011;9663;48.996;8.334;2023-03-12T04:18:36;3.25;;;1.30;;
19059;SDS011;9663;48.996;8.334;2023-03-12T04:21:04;5.40;;;1.38;;
19059;SDS011;9663;48.996;8.334;2023-03-12T04:23:32;4.05;;;1.20;;
19059;SDS011;9663;48.996;8.334;2023-03-12T04:25:58;3.28;;;1.27;;
19059;SDS011;9663;48.996;8.334;2023-03-12T04:28:24;3.67;;;1.35;;
19059;SDS011;9663;48.996;8.334;2023-03-12T04:30:54;2.65;;;1.20;;
19059;SDS011;9663;48.996;8.334;2023-03-12T04:33:26;3.85;;;1.20;;
19059;SDS011;9663;48.996;8.334;2023-03-12T04:35:57;4.07;;;1.40;;
19059;SDS011;9663;48.996;8.334;2023-03-12T04:38:23;2.88;;;1.20;;
19059;SDS011;9663;48.996;8.334;2023-03-12T04:40:58;2.92;;;1.20;;
19059;SDS011;9663;48.996;8.334;2023-03-12T04:43:33;3.40;;;1.00;;
19059;SDS011;9663;48.996;8.334;2023-03-12T04:45:59;3.88;;;1.55;;
19059;SDS011;9663;48.996;8.334;2023-03-12T04:48:25;3.83;;;1.20;;
19059;SDS011;9663;48.996;8.334;2023-03-12T04:50:52;3.70;;;1.50;;
19059;SDS011;9663;48.996;8.334;2023-03-12T04:53:18;4.53;;;1.83;;
19059;SDS011;9663;48.996;8.334;2023-03-12T04:55:45;3.72;;;1.25;;
19059;SDS011;9663;48.996;8.334;2023-03-12T04:58:11;3.65;;;1.23;;
19059;SDS011;9663;48.996;8.334;2023-03-12T05:00:37;4.70;;;1.60;;
19059;SDS011;9663;48.996;8.334;2023-03-12T05:03:05;4.85;;;1.50;;
19059;SDS011;9663;48.996;8.334;2023-03-12T05:05:32;3.63;;;1.40;;
19059;SDS011;9663;48.996;8.334;2023-03-12T05:07:58;2.47;;;1.10;;
19059;SDS011;9663;48.996;8.334;2023-03-12T05:10:23;4.35;;;1.20;;
19059;SDS011;9663;48.996;8.334;2023-03-12T05:12:49;6.05;;;1.55;;
19059;SDS011;9663;48.996;8.334;2023-03-12T05:15:15;3.38;;;1.15;;
19059;SDS011;9663;48.996;8.334;2023-03-12T05:17:41;3.50;;;1.20;;
19059;SDS011;9663;48.996;8.334;2023-03-12T05:20:08;2.97;;;1.17;;
19059;SDS011;9663;48.996;8.334;2023-03-12T05:22:36;4.30;;;1.42;;
19059;SDS011;9663;48.996;8.334;2023-03-12T05:25:02;4.45;;;1.38;;
19059;SDS011;9663;48.996;8.334;2023-03-12T05:27:29;4.00;;;1.45;;
19059;SDS011;9663;48.996;8.334;2023-03-12T05:29:55;3.00;;;1.27;;
19059;SDS011;9663;48.996;8.334;2023-03-12T05:32:21;3.58;;;1.33;;
19059;SDS011;9663;48.996;8.334;2023-03-12T05:34:46;4.05;;;1.48;;
19059;SDS011;9663;48.996;8.334;2023-03-12T05:37:12;3.05;;;1.30;;
19059;SDS011;9663;48.996;8.334;2023-03-12T05:39:38;5.07;;;1.27;;
19059;SDS011;9663;48.996;8.334;2023-03-12T05:42:10;3.20;;;1.45;;
19059;SDS011;9663;48.996;8.334;2023-03-12T05:44:40;3.75;;;1.23;;
19059;SDS011;9663;48.996;8.334;2023-03-12T05:47:06;5.18;;;1.52;;
19059;SDS011;9663;48.996;8.334;2023-03-12T05:49:33;3.67;;;1.38;;
19059;SDS011;9663;48.996;8.334;2023-03-12T05:51:59;3.20;;;1.30;;
19059;SDS011;9663;48.996;8.334;2023-03-12T05:54:24;3.10;;;1.20;;
19059;SDS011;9663;48.996;8.334;2023-03-12T05:56:50;3.92;;;1.20;;
19059;SDS011;9663;48.996;8.334;2023-03-12T05:59:16;3.50;;;1.23;;
19059;SDS011;9663;48.996;8.334;2023-03-12T06:01:42;2.97;;;1.13;;
19059;SDS011;9663;48.996;8.334;2023-03-12T06:04:08;3.80;;;1.30;;
19059;SDS011;9663;48.996;8.334;2023-03-12T06:06:34;3.42;;;1.27;;
19059;SDS011;9663;48.996;8.334;2023-03-12T06:09:02;4.60;;;1.58;;
19059;SDS011;9663;48.996;8.334;2023-03-12T06:11:29;3.67;;;1.20;;
19059;SDS011;9663;48.996;8.334;2023-03-12T06:13:56;4.10;;;1.23;;
19059;SDS011;9663;48.996;8.334;2023-03-12T06:16:25;3.30;;;1.30;;
19059;SDS011;9663;48.996;8.334;2023-03-12T06:18:52;2.63;;;1.10;;
19059;SDS011;9663;48.996;8.334;2023-03-12T06:21:22;3.67;;;1.20;;
19059;SDS011;9663;48.996;8.334;2023-03-12T06:23:50;2.83;;;1.10;;
19059;SDS011;9663;48.996;8.334;2023-03-12T06:26:16;2.85;;;1.13;;
19059;SDS011;9663;48.996;8.334;2023-03-12T06:28:45;4.20;;;1.42;;
19059;SDS011;9663;48.996;8.334;2023-03-12T06:31:12;2.58;;;1.10;;
19059;SDS011;9663;48.996;8.334;2023-03-12T06:33:39;3.28;;;1.40;;
19059;SDS011;9663;48.996;8.334;2023-03-12T06:36:05;3.10;;;1.27;;
19059;SDS011;9663;48.996;8.334;2023-03-12T06:38:33;3.28;;;1.10;;
19059;SDS011;9663;48.996;8.334;2023-03-12T06:41:11;2.38;;;1.05;;
19059;SDS011;9663;48.996;8.334;2023-03-12T06:43:42;3.25;;;1.10;;
19059;SDS011;9663;48.996;8.334;2023-03-12T06:46:13;2.83;;;1.15;;
19059;SDS011;9663;48.996;8.334;2023-03-12T06:48:43;3.55;;;1.33;;
19059;SDS011;9663;48.996;8.334;2023-03-12T06:51:11;3.00;;;1.20;;
19059;SDS011;9663;48.996;8.334;2023-03-12T06:53:39;3.25;;;1.02;;
19059;SDS011;9663;48.996;8.334;2023-03-12T06:56:05;4.13;;;1.27;;
19059;SDS011;9663;48.996;8.334;2023-03-12T06:58:31;3.17;;;1.15;;
19059;SDS011;9663;48.996;8.334;2023-03-12T07:00:57;3.67;;;1.05;;
19059;SDS011;9663;48.996;8.334;2023-03-12T07:03:23;2.97;;;1.20;;
19059;SDS011;9663;48.996;8.334;2023-03-12T07:05:49;2.55;;;1.00;;
19059;SDS011;9663;48.996;8.334;2023-03-12T07:08:16;3.60;;;1.25;;
19059;SDS011;9663;48.996;8.334;2023-03-12T07:10:42;3.67;;;1.33;;
19059;SDS011;9663;48.996;8.334;2023-03-12T07:13:09;3.28;;;1.55;;
19059;SDS011;9663;48.996;8.334;2023-03-12T07:15:35;3.58;;;1.27;;
19059;SDS011;9663;48.996;8.334;2023-03-12T07:18:09;3.38;;;1.30;;
19059;SDS011;9663;48.996;8.334;2023-03-12T07:20:36;3.03;;;1.30;;
19059;SDS011;9663;48.996;8.334;2023-03-12T07:23:05;3.67;;;1.27;;
19059;SDS011;9663;48.996;8.334;2023-03-12T07:25:38;3.35;;;1.30;;
19059;SDS011;9663;48.996;8.334;2023-03-12T07:28:06;3.90;;;1.67;;
19059;SDS011;9663;48.996;8.334;2023-03-12T07:30:33;3.70;;;1.20;;
19059;SDS011;9663;48.996;8.334;2023-03-12T07:33:03;3.40;;;1.30;;
19059;SDS011;9663;48.996;8.334;2023-03-12T07:35:31;4.10;;;1.30;;
19059;SDS011;9663;48.996;8.334;2023-03-12T07:37:58;3.40;;;1.33;;
19059;SDS011;9663;48.996;8.334;2023-03-12T07:40:25;3.78;;;1.38;;
19059;SDS011;9663;48.996;8.334;2023-03-12T07:42:51;2.70;;;1.25;;
19059;SDS011;9663;48.996;8.334;2023-03-12T07:45:17;4.15;;;1.50;;
19059;SDS011;9663;48.996;8.334;2023-03-12T07:47:44;3.67;;;1.58;;
19059;SDS011;9663;48.996;8.334;2023-03-12T07:50:10;3.55;;;1.35;;
19059;SDS011;9663;48.996;8.334;2023-03-12T07:52:37;3.85;;;1.50;;
19059;SDS011;9663;48.996;8.334;2023-03-12T07:55:03;4.43;;;1.52;;
19059;SDS011;9663;48.996;8.334;2023-03-12T07:57:29;4.47;;;1.55;;
19059;SDS011;9663;48.996;8.334;2023-03-12T07:59:55;4.03;;;1.55;;
19059;SDS011;9663;48.996;8.334;2023-03-12T08:02:21;4.68;;;1.70;;
19059;SDS011;9663;48.996;8.334;2023-03-12T08:04:46;3.65;;;1.50;;
19059;SDS011;9663;48.996;8.334;2023-03-12T08:07:12;3.95;;;1.50;;
19059;SDS011;9663;48.996;8.334;2023-03-12T08:09:38;5.53;;;1.75;;
19059;SDS011;9663;48.996;8.334;2023-03-12T08:12:05;4.15;;;1.90;;
19059;SDS011;9663;48.996;8.334;2023-03-12T08:14:31;3.70;;;1.63;;
19059;SDS011;9663;48.996;8.334;2023-03-12T08:16:58;3.80;;;1.70;;
19059;SDS011;9663;48.996;8.334;2023-03-12T08:19:24;4.15;;;1.75;;
19059;SDS011;9663;48.996;8.334;2023-03-12T08:21:51;3.40;;;1.58;;
19059;SDS011;9663;48.996;8.334;2023-03-12T08:24:18;4.30;;;1.85;;
19059;SDS011;9663;48.996;8.334;2023-03-12T08:26:46;4.00;;;1.92;;
19059;SDS011;9663;48.996;8.334;2023-03-12T08:29:12;4.32;;;1.58;;
19059;SDS011;9663;48.996;8.334;2023-03-12T08:31:38;4.03;;;1.52;;
19059;SDS011;9663;48.996;8.334;2023-03-12T08:34:04;3.65;;;1.60;;
19059;SDS011;9663;48.996;8.334;2023-03-12T08:36:30;4.35;;;1.48;;
19059;SDS011;9663;48.996;8.334;2023-03-12T08:38:55;5.80;;;1.65;;
19059;SDS011;9663;48.996;8.334;2023-03-12T08:41:21;4.45;;;1.73;;
19059;SDS011;9663;48.996;8.334;2023-03-12T08:43:47;3.35;;;1.35;;
19059;SDS011;9663;48.996;8.334;2023-03-12T08:46:12;5.13;;;1.58;;
19059;SDS011;9663;48.996;8.334;2023-03-12T08:48:38;3.70;;;1.42;;
19059;SDS011;9663;48.996;8.334;2023-03-12T08:51:04;4.63;;;1.70;;
19059;SDS011;9663;48.996;8.334;2023-03-12T08:53:32;4.15;;;1.77;;
19059;SDS011;9663;48.996;8.334;2023-03-12T08:56:00;3.75;;;1.60;;
19059;SDS011;9663;48.996;8.334;2023-03-12T08:58:27;4.10;;;1.58;;
19059;SDS011;9663;48.996;8.334;2023-03-12T09:00:54;4.10;;;1.70;;
19059;SDS011;9663;48.996;8.334;2023-03-12T09:03:20;3.65;;;1.40;;
19059;SDS011;9663;48.996;8.334;2023-03-12T09:05:47;5.13;;;1.90;;
19059;SDS011;9663;48.996;8.334;2023-03-12T09:08:14;5.00;;;1.67;;
19059;SDS011;9663;48.996;8.334;2023-03-12T09:10:46;4.60;;;1.60;;
19059;SDS011;9663;48.996;8.334;2023-03-12T09:13:14;3.78;;;1.60;;
19059;SDS011;9663;48.996;8.334;2023-03-12T09:15:40;4.05;;;1.58;;
19059;SDS011;9663;48.996;8.334;2023-03-12T09:18:05;4.45;;;1.30;;
19059;SDS011;9663;48.996;8.334;2023-03-12T09:20:31;4.40;;;1.50;;
19059;SDS011;9663;48.996;8.334;2023-03-12T09:22:57;3.35;;;1.30;;
19059;SDS011;9663;48.996;8.334;2023-03-12T09:25:23;3.40;;;1.40;;
19059;SDS011;9663;48.996;8.334;2023-03-12T09:27:49;4.45;;;1.73;;
19059;SDS011;9663;48.996;8.334;2023-03-12T09:30:16;5.22;;;1.60;;
19059;SDS011;9663;48.996;8.334;2023-03-12T09:32:45;4.22;;;1.60;;
19059;SDS011;9663;48.996;8.334;2023-03-12T09:35:13;3.85;;;1.60;;
19059;SDS011;9663;48.996;8.334;2023-03-12T09:37:39;3.17;;;1.60;;
19059;SDS011;9663;48.996;8.334;2023-03-12T09:40:05;4.40;;;1.70;;
19059;SDS011;9663;48.996;8.334;2023-03-12T09:42:39;4.25;;;2.10;;
19059;SDS011;9663;48.996;8.334;2023-03-12T09:45:31;3.47;;;1.67;;
19059;SDS011;9663;48.996;8.334;2023-03-12T09:48:03;3.92;;;1.58;;
19059;SDS011;9663;48.996;8.334;2023-03-12T09:50:37;3.33;;;1.33;;
19059;SDS011;9663;48.996;8.334;2023-03-12T09:53:14;4.18;;;1.75;;
19059;SDS011;9663;48.996;8.334;2023-03-12T09:55:48;3.33;;;1.70;;
19059;SDS011;9663;48.996;8.334;2023-03-12T09:58:21;4.05;;;1.80;;
19059;SDS011;9663;48.996;8.334;2023-03-12T10:00:51;3.40;;;1.80;;
19059;SDS011;9663;48.996;8.334;2023-03-12T10:18:07;4.05;;;1.80;;
19059;SDS011;9663;48.996;8.334;2023-03-12T10:28:59;3.80;;;1.90;;
19059;SDS011;9663;48.996;8.334;2023-03-12T10:37:24;5.07;;;2.10;;
19059;SDS011;9663;48.996;8.334;2023-03-12T10:40:05;4.60;;;2.03;;
19059;SDS011;9663;48.996;8.334;2023-03-12T10:42:38;4.30;;;2.38;;
19059;SDS011;9663;48.996;8.334;2023-03-12T10:47:36;4.93;;;2.80;;
19059;SDS011;9663;48.996;8.334;2023-03-12T10:50:16;4.70;;;2.15;;
19059;SDS011;9663;48.996;8.334;2023-03-12T10:53:11;3.90;;;2.13;;
19059;SDS011;9663;48.996;8.334;2023-03-12T10:58:44;4.55;;;2.00;;
19059;SDS011;9663;48.996;8.334;2023-03-12T11:01:23;4.50;;;1.70;;
19059;SDS011;9663;48.996;8.334;2023-03-12T11:03:52;5.70;;;2.80;;
19059;SDS011;9663;48.996;8.334;2023-03-12T11:07:22;4.50;;;2.30;;
19059;SDS011;9663;48.996;8.334;2023-03-12T11:12:32;4.53;;;1.88;;
19059;SDS011;9663;48.996;8.334;2023-03-12T11:17:50;4.05;;;2.10;;
19059;SDS011;9663;48.996;8.334;2023-03-12T11:22:45;4.45;;;2.15;;
19059;SDS011;9663;48.996;8.334;2023-03-12T11:25:18;4.03;;;1.88;;
19059;SDS011;9663;48.996;8.334;2023-03-12T11:27:53;4.32;;;2.30;;
19059;SDS011;9663;48.996;8.334;2023-03-12T11:30:25;3.95;;;2.03;;
19059;SDS011;9663;48.996;8.334;2023-03-12T11:33:03;3.60;;;1.83;;
19059;SDS011;9663;48.996;8.334;2023-03-12T11:38:39;4.80;;;1.92;;
19059;SDS011;9663;48.996;8.334;2023-03-12T11:41:25;4.72;;;1.85;;
19059;SDS011;9663;48.996;8.334;2023-03-12T11:44:13;5.28;;;1.92;;
19059;SDS011;9663;48.996;8.334;2023-03-12T11:52:50;7.00;;;2.47;;
19059;SDS011;9663;48.996;8.334;2023-03-12T11:55:38;5.22;;;2.22;;
19059;SDS011;9663;48.996;8.334;2023-03-12T12:10:12;6.15;;;2.40;;
19059;SDS011;9663;48.996;8.334;2023-03-12T12:16:22;5.60;;;1.50;;
19059;SDS011;9663;48.996;8.334;2023-03-12T12:24:36;4.65;;;1.40;;
19059;SDS011;9663;48.996;8.334;2023-03-12T12:27:23;3.28;;;1.20;;
19059;SDS011;9663;48.996;8.334;2023-03-12T12:38:04;4.45;;;1.50;;
19059;SDS011;9663;48.996;8.334;2023-03-12T12:41:17;4.93;;;1.33;;
19059;SDS011;9663;48.996;8.334;2023-03-12T12:43:49;4.78;;;1.40;;
19059;SDS011;9663;48.996;8.334;2023-03-12T12:46:38;4.25;;;1.58;;
19059;SDS011;9663;48.996;8.334;2023-03-12T12:49:12;4.50;;;1.60;;
19059;SDS011;9663;48.996;8.334;2023-03-12T12:51:52;4.57;;;1.60;;
19059;SDS011;9663;48.996;8.334;2023-03-12T12:57:43;5.03;;;1.48;;
19059;SDS011;9663;48.996;8.334;2023-03-12T13:03:15;4.70;;;1.52;;
19059;SDS011;9663;48.996;8.334;2023-03-12T13:08:33;5.22;;;1.85;;
19059;SDS011;9663;48.996;8.334;2023-03-12T13:14:22;6.88;;;1.90;;
19059;SDS011;9663;48.996;8.334;2023-03-12T13:16:35;6.90;;;1.90;;
19059;SDS011;9663;48.996;8.334;2023-03-12T13:24:47;6.90;;;1.60;;
19059;SDS011;9663;48.996;8.334;2023-03-12T13:27:40;6.03;;;1.80;;
19059;SDS011;9663;48.996;8.334;2023-03-12T13:45:33;6.18;;;1.90;;
19059;SDS011;9663;48.996;8.334;2023-03-12T13:48:25;6.53;;;1.90;;
19059;SDS011;9663;48.996;8.334;2023-03-12T13:50:53;5.68;;;1.60;;
19059;SDS011;9663;48.996;8.334;2023-03-12T13:53:23;4.70;;;1.50;;
19059;SDS011;9663;48.996;8.334;2023-03-12T13:56:10;4.05;;;1.60;;
19059;SDS011;9663;48.996;8.334;2023-03-12T13:58:53;5.65;;;1.52;;
19059;SDS011;9663;48.996;8.334;2023-03-12T14:01:28;5.00;;;1.38;;
19059;SDS011;9663;48.996;8.334;2023-03-12T14:04:09;5.28;;;1.48;;
19059;SDS011;9663;48.996;8.334;2023-03-12T14:09:55;4.53;;;1.50;;
19059;SDS011;9663;48.996;8.334;2023-03-12T14:15:35;6.70;;;1.85;;
19059;SDS011;9663;48.996;8.334;2023-03-12T14:18:33;5.53;;;1.70;;
19059;SDS011;9663;48.996;8.334;2023-03-12T14:21:02;5.05;;;1.48;;
19059;SDS011;9663;48.996;8.334;2023-03-12T14:23:46;5.07;;;1.23;;
19059;SDS011;9663;48.996;8.334;2023-03-12T14:26:19;6.03;;;1.50;;
19059;SDS011;9663;48.996;8.334;2023-03-12T14:28:57;4.35;;;1.50;;
19059;SDS011;9663;48.996;8.334;2023-03-12T14:31:33;4.93;;;1.45;;
19059;SDS011;9663;48.996;8.334;2023-03-12T14:34:03;6.93;;;1.50;;
19059;SDS011;9663;48.996;8.334;2023-03-12T14:36:45;5.15;;;1.55;;
19059;SDS011;9663;48.996;8.334;2023-03-12T14:39:22;6.72;;;1.75;;
19059;SDS011;9663;48.996;8.334;2023-03-12T14:42:06;5.88;;;1.73;;
19059;SDS011;9663;48.996;8.334;2023-03-12T14:44:34;5.38;;;1.88;;
19059;SDS011;9663;48.996;8.334;2023-03-12T14:47:04;6.50;;;1.95;;
19059;SDS011;9663;48.996;8.334;2023-03-12T14:49:39;6.63;;;1.75;;
19059;SDS011;9663;48.996;8.334;2023-03-12T14:52:22;5.80;;;1.60;;
19059;SDS011;9663;48.996;8.334;2023-03-12T14:57:24;5.70;;;1.63;;
19059;SDS011;9663;48.996;8.334;2023-03-12T14:59:54;4.78;;;1.38;;
19059;SDS011;9663;48.996;8.334;2023-03-12T15:02:23;3.83;;;1.30;;
19059;SDS011;9663;48.996;8.334;2023-03-12T15:04:51;6.20;;;1.55;;
19059;SDS011;9663;48.996;8.334;2023-03-12T15:07:31;6.25;;;1.38;;
19059;SDS011;9663;48.996;8.334;2023-03-12T15:10:05;4.80;;;1.40;;
19059;SDS011;9663;48.996;8.334;2023-03-12T15:12:51;4.30;;;1.50;;
19059;SDS011;9663;48.996;8.334;2023-03-12T15:17:56;4.82;;;1.60;;
19059;SDS011;9663;48.996;8.334;2023-03-12T15:20:23;6.45;;;1.48;;
19059;SDS011;9663;48.996;8.334;2023-03-12T15:22:51;4.80;;;1.70;;
19059;SDS011;9663;48.996;8.334;2023-03-12T15:25:28;4.32;;;1.40;;
19059;SDS011;9663;48.996;8.334;2023-03-12T15:30:45;4.43;;;1.27;;
19059;SDS011;9663;48.996;8.334;2023-03-12T15:33:12;5.38;;;1.40;;
19059;SDS011;9663;48.996;8.334;2023-03-12T15:36:24;5.95;;;1.48;;
19059;SDS011;9663;48.996;8.334;2023-03-12T15:38:53;4.57;;;1.15;;
19059;SDS011;9663;48.996;8.334;2023-03-12T15:41:46;5.65;;;1.30;;
19059;SDS011;9663;48.996;8.334;2023-03-12T15:44:20;7.05;;;1.48;;
19059;SDS011;9663;48.996;8.334;2023-03-12T15:46:54;4.55;;;1.20;;
19059;SDS011;9663;48.996;8.334;2023-03-12T15:49:30;6.13;;;1.42;;
19059;SDS011;9663;48.996;8.334;2023-03-12T15:55:03;6.07;;;1.50;;
19059;SDS011;9663;48.996;8.334;2023-03-12T15:57:43;7.07;;;1.40;;
19059;SDS011;9663;48.996;8.334;2023-03-12T16:03:14;6.50;;;1.80;;
19059;SDS011;9663;48.996;8.334;2023-03-12T16:05:42;7.90;;;1.65;;
19059;SDS011;9663;48.996;8.334;2023-03-12T16:08:22;6.68;;;2.28;;
19059;SDS011;9663;48.996;8.334;2023-03-12T16:10:54;4.03;;;1.58;;
19059;SDS011;9663;48.996;8.334;2023-03-12T16:13:21;6.13;;;1.52;;
19059;SDS011;9663;48.996;8.334;2023-03-12T16:15:55;6.22;;;1.80;;
19059;SDS011;9663;48.996;8.334;2023-03-12T16:18:21;7.05;;;1.42;;
19059;SDS011;9663;48.996;8.334;2023-03-12T16:20:49;9.75;;;1.77;;
19059;SDS011;9663;48.996;8.334;2023-03-12T16:23:16;5.18;;;1.50;;
19059;SDS011;9663;48.996;8.334;2023-03-12T16:25:44;5.05;;;1.40;;
19059;SDS011;9663;48.996;8.334;2023-03-12T16:28:14;7.70;;;1.83;;
19059;SDS011;9663;48.996;8.334;2023-03-12T16:30:43;5.45;;;1.58;;
19059;SDS011;9663;48.996;8.334;2023-03-12T16:33:13;7.53;;;1.83;;
19059;SDS011;9663;48.996;8.334;2023-03-12T16:35:41;4.90;;;1.65;;
19059;SDS011;9663;48.996;8.334;2023-03-12T16:38:07;5.28;;;1.42;;
19059;SDS011;9663;48.996;8.334;2023-03-12T16:40:33;4.32;;;1.20;;
19059;SDS011;9663;48.996;8.334;2023-03-12T16:43:03;6.38;;;1.48;;
19059;SDS011;9663;48.996;8.334;2023-03-12T16:45:35;5.55;;;1.58;;
19059;SDS011;9663;48.996;8.334;2023-03-12T16:48:03;5.97;;;1.45;;
19059;SDS011;9663;48.996;8.334;2023-03-12T16:50:30;4.93;;;1.40;;
19059;SDS011;9663;48.996;8.334;2023-03-12T16:52:56;4.47;;;1.30;;
19059;SDS011;9663;48.996;8.334;2023-03-12T16:55:25;4.45;;;1.25;;
19059;SDS011;9663;48.996;8.334;2023-03-12T16:57:55;4.55;;;1.20;;
19059;SDS011;9663;48.996;8.334;2023-03-12T17:00:25;4.22;;;1.20;;
19059;SDS011;9663;48.996;8.334;2023-03-12T17:02:55;3.47;;;1.30;;
19059;SDS011;9663;48.996;8.334;2023-03-12T17:05:22;7.03;;;1.42;;
19059;SDS011;9663;48.996;8.334;2023-03-12T17:07:50;6.22;;;1.48;;
19059;SDS011;9663;48.996;8.334;2023-03-12T17:10:16;5.97;;;1.50;;
19059;SDS011;9663;48.996;8.334;2023-03-12T17:12:42;4.65;;;1.40;;
19059;SDS011;9663;48.996;8.334;2023-03-12T17:15:13;5.97;;;1.33;;
19059;SDS011;9663;48.996;8.334;2023-03-12T17:17:54;6.40;;;1.27;;
19059;SDS011;9663;48.996;8.334;2023-03-12T17:20:21;5.15;;;1.30;;
19059;SDS011;9663;48.996;8.334;2023-03-12T17:22:48;6.57;;;1.48;;
19059;SDS011;9663;48.996;8.334;2023-03-12T17:25:18;5.45;;;1.40;;
19059;SDS011;9663;48.996;8.334;2023-03-12T17:27:51;6.55;;;1.38;;
19059;SDS011;9663;48.996;8.334;2023-03-12T17:30:17;5.78;;;1.13;;
19059;SDS011;9663;48.996;8.334;2023-03-12T17:32:45;4.53;;;1.40;;
19059;SDS011;9663;48.996;8.334;2023-03-12T17:35:11;6.05;;;1.83;;
19059;SDS011;9663;48.996;8.334;2023-03-12T17:37:37;5.28;;;1.20;;
19059;SDS011;9663;48.996;8.334;2023-03-12T17:40:03;5.47;;;1.20;;
19059;SDS011;9663;48.996;8.334;2023-03-12T17:42:32;4.78;;;1.30;;